40.7F
Current conditions from King Hill
Updated every 5 minutes
 
  Monday April 15, 2024

Observations for Westford

Westford

43° 37' 38"N, 73° 02' 30"W, Elevation 850 ft.
Eastern Time

Hourly observations for the last 72 hours

Date Time Temperature (F) Humi-
dity

(%)
Wind
(mph)
Pressure Rain (in) Sun
(W/m2)
UV ET
(in)
Air Dew 6 Hour 1 Hr 3 Hr 6 Hr Day
Alt
(in)
Sea
Level

(mb)
Max Min
15 03:00 40.6 39.0 94 Calm 29.65 1004.1 0.00 0 0.0 0.000
15 02:00 41.8 40.2 42.2 40.0 94 S 0 G 3 29.66 1004.5 0.00 0 0.0 0.000
15 01:00 40.1 38.5 94 S 1 G 3 29.67 1004.8 0.00 0 0.0 0.000
15 00:00 42.0 40.4 94 S 4 G 8 29.68 1005.1 0.10 0 0.0 0.064
14 23:00 41.4 40.1 95 S 1 G 3 29.68 1005.2 0.10 0 0.0 0.064
14 22:00 41.3 39.7 94 Calm 29.66 1004.5 0.10 0 0.0 0.064
14 21:00 42.0 40.1 93 S 1 G 5 29.66 1004.5 0.10 0 0.0 0.064
14 20:00 42.1 40.2 48.4 42.0 93 S 0 G 4 29.66 1004.5 0.05 0.09 0.10 0 0.0 0.064
14 19:00 42.4 40.5 93 S 1 G 7 29.67 1004.6 0.04 0.10 11 0.0 0.064
14 18:00 42.7 40.5 92 S 1 G 9 29.68 1005.0 0.01 0.06 26 0.0 0.063
14 17:00 43.2 40.8 91 SSE 2 G 7 29.68 1005.0 0.03 0.04 0.05 62 0.0 0.062
14 16:00 44.0 39.5 84 SSE 3 G 12 29.68 1005.1 0.01 0.02 56 0.0 0.061
14 15:00 46.1 38.6 75 S 6 G 18 29.68 1005.1 0.01 65 0.0 0.058
14 14:00 48.4 38.3 53.2 37.0 68 S 10 G 22 29.69 1005.6 0.01 183 0.0 0.053
14 13:00 51.5 36.8 57 SSE 9 G 18 29.70 1005.8 0.01 322 0.0 0.043
14 12:00 52.1 38.2 59 S 5 G 13 29.70 1005.9 0.01 784 0.0 0.029
14 11:00 50.3 38.6 64 WSW 3 G 12 29.72 1006.5 0.01 548 0.0 0.017
14 10:00 47.3 39.1 73 SSW 4 G 9 29.75 1007.4 0.01 557 0.0 0.008
14 09:00 44.6 38.2 78 SW 4 G 8 29.76 1008.0 0.01 418 0.0 0.002
14 08:00 37.0 33.8 37.5 33.1 88 SSE 3 G 10 29.78 1008.5 0.01 251 0.0 0.000
14 07:00 33.8 31.2 90 SW 0 G 4 29.77 1008.2 0.01 23 0.0 0.000
14 06:00 35.0 31.2 86 WSW 0 G 2 29.76 1007.7 0.01 0 0.0 0.000
14 05:00 36.0 32.5 87 WSW 4 G 10 29.76 1007.7 0.01 0 0.0 0.000
14 04:00 37.2 34.5 90 W 8 G 13 29.75 1007.4 0.01 0 0.0 0.000
14 03:00 36.5 34.7 93 SW 1 G 5 29.72 1006.4 0.01 0 0.0 0.000
14 02:00 36.3 34.5 36.3 33.5 93 W 2 G 6 29.70 1005.7 0.04 0.15 0.01 0 0.0 0.000
14 01:00 35.5 33.7 93 W 3 G 11 29.69 1005.4 0.01 0.01 0 0.0 0.000
14 00:00 34.9 33.1 93 W 5 G 11 29.67 1004.8 0.03 0.27 0 0.0 0.059
13 23:00 34.4 32.6 93 WNW 4 G 15 29.66 1004.4 0.02 0.11 0.24 0 0.0 0.059
13 22:00 33.7 31.6 92 W 6 G 18 29.64 1003.9 0.03 0.22 0 0.0 0.059
13 21:00 34.0 31.9 92 WNW 3 G 14 29.62 1002.9 0.06 0.19 0 0.0 0.059
13 20:00 34.7 32.3 46.0 34.7 91 WSW 8 G 14 29.57 1001.5 0.04 0.06 0.10 0.13 0 0.0 0.059
13 19:00 37.3 33.8 87 W 7 G 15 29.53 999.9 0.01 0.09 7 0.0 0.058
13 18:00 38.9 35.4 87 WSW 7 G 16 29.50 998.9 0.01 0.08 69 0.0 0.056
13 17:00 40.2 36.6 87 WSW 5 G 19 29.46 997.7 0.03 0.04 0.07 135 0.0 0.054
13 16:00 40.9 36.4 84 WSW 6 G 14 29.43 996.7 0.01 0.04 151 0.0 0.050
13 15:00 44.3 37.2 76 SW 7 G 15 29.41 995.8 0.03 223 0.0 0.044
13 14:00 46.0 38.2 48.1 44.7 74 S 9 G 20 29.39 995.2 0.03 418 0.0 0.036
13 13:00 46.9 37.6 70 SSW 6 G 12 29.36 994.4 0.03 348 0.0 0.029
13 12:00 46.4 38.2 73 S 4 G 13 29.35 993.9 0.03 374 0.0 0.023
13 11:00 45.2 40.3 83 SW 3 G 14 29.34 993.5 0.03 360 0.0 0.017
13 10:00 47.3 40.1 76 SSW 8 G 17 29.32 993.0 0.03 390 0.0 0.010
13 09:00 45.0 39.8 82 S 8 G 21 29.30 992.3 0.03 265 0.0 0.006
13 08:00 45.4 41.2 47.6 45.0 85 S 9 G 20 29.29 992.0 0.03 0.03 123 0.0 0.004
13 07:00 45.6 41.0 84 S 6 G 11 29.27 991.4 0.03 30 0.0 0.003
13 06:00 47.3 42.7 84 S 7 G 18 29.25 990.4 0.03 0 0.0 0.002
13 05:00 46.9 43.5 88 S 1 G 9 29.24 990.3 0.03 0.03 0 0.0 0.002
13 04:00 46.6 43.8 90 S 6 G 17 29.25 990.4 0.03 0.03 0 0.0 0.002
13 03:00 46.7 43.6 89 S 2 G 11 29.25 990.4 0.00 0 0.0 0.001
13 02:00 47.6 43.6 50.4 47.6 86 S 4 G 13 29.25 990.5 0.04 0.10 0.00 0 0.0 0.000
13 01:00 49.4 46.0 88 S 4 G 15 29.25 990.7 0.00 0 0.0 0.000
13 00:00 48.5 46.6 93 S 4 G 11 29.25 990.6 0.04 0.81 0 0.0 0.104
12 23:00 49.4 47.5 93 SSE 6 G 12 29.24 990.3 0.06 0.77 0 0.0 0.104
12 22:00 50.0 48.6 95 SSE 3 G 11 29.24 990.2 0.01 0.77 0 0.0 0.104
12 21:00 50.2 48.8 95 Calm 29.23 989.9 0.05 0.76 0 0.0 0.104
12 20:00 50.2 48.5 71.2 50.2 94 SW 0 G 3 29.20 988.9 0.05 0.57 0.59 0.71 0 0.0 0.104
12 19:00 50.8 49.1 94 WSW 7 G 14 29.15 987.3 0.18 0.66 9 0.0 0.103
12 18:00 57.0 55.0 93 S 4 G 10 29.08 984.8 0.34 0.48 35 0.0 0.102
12 17:00 64.2 58.3 81 S 3 G 14 29.08 984.8 0.01 0.02 0.14 30 0.0 0.096
12 16:00 70.9 59.8 68 SE 5 G 27 29.08 984.8 0.13 626 0.0 0.085
12 15:00 65.9 59.6 80 SSE 2 G 19 29.11 985.8 0.01 0.13 313 0.0 0.077
12 14:00 68.5 59.1 71.2 57.5 72 SE 5 G 21 29.14 986.9 0.12 345 0.0 0.065
12 13:00 70.5 59.4 68 SSE 6 G 23 29.17 988.0 0.12 283 0.0 0.048
12 12:00 69.9 59.3 69 SSE 8 G 24 29.21 989.2 0.12 427 0.0 0.032
12 11:00 64.9 57.9 78 S 4 G 15 29.24 990.1 0.12 399 0.0 0.023
12 10:00 62.3 56.4 81 SSE 7 G 17 29.25 990.4 0.12 315 0.0 0.015
12 09:00 61.0 55.5 82 SE 6 G 24 29.28 991.5 0.12 253 0.0 0.009
12 08:00 57.5 54.3 58.5 56.0 89 ESE 7 G 17 29.32 993.1 0.06 0.11 0.11 0.12 209 0.0 0.007
12 07:00 58.0 54.5 88 S 0 G 9 29.40 995.5 0.04 0.06 0 0.0 0.006
12 06:00 57.2 52.7 85 SE 5 G 16 29.41 996.0 0.01 0.02 0 0.0 0.005
12 05:00 56.8 52.3 85 SSE 5 G 20 29.47 998.1 0.01 0 0.0 0.004
12 04:00 56.2 51.4 84 SSE 5 G 18 29.50 999.1 0.01 0 0.0 0.003

Data generated by WxSolution Version 1.9.2, Build 2023.03.05.


 
 
Current Radar Loop:

Copyright © WestfordWeather.net 2007-2024. All rights reserved.